sensor_id;sensor_type;location;lat;lon;timestamp;pressure;altitude;pressure_sealevel;temperature;humidity
44079;BME280;29744;49.078;12.878;2022-10-30T00:02:12;97035.81;;;16.14;45.17
44079;BME280;29744;49.078;12.878;2022-10-30T00:07:12;97036.63;;;16.15;45.47
44079;BME280;29744;49.078;12.878;2022-10-30T00:12:12;97036.63;;;16.15;44.87
44079;BME280;29744;49.078;12.878;2022-10-30T00:17:13;97030.41;;;16.14;45.17
44079;BME280;29744;49.078;12.878;2022-10-30T00:22:13;97030.41;;;16.14;45.14
44079;BME280;29744;49.078;12.878;2022-10-30T00:27:13;97021.50;;;16.14;44.84
44079;BME280;29744;49.078;12.878;2022-10-30T00:32:13;97021.19;;;16.15;45.20
44079;BME280;29744;49.078;12.878;2022-10-30T00:37:14;97017.69;;;16.15;45.09
44079;BME280;29744;49.078;12.878;2022-10-30T00:42:15;97013.38;;;16.14;45.30
44079;BME280;29744;49.078;12.878;2022-10-30T00:47:20;97010.66;;;16.14;45.16
44079;BME280;29744;49.078;12.878;2022-10-30T00:52:24;96996.34;;;16.13;44.96
44079;BME280;29744;49.078;12.878;2022-10-30T00:57:26;96998.25;;;16.13;45.46
44079;BME280;29744;49.078;12.878;2022-10-30T01:02:27;96999.06;;;16.13;45.09
44079;BME280;29744;49.078;12.878;2022-10-30T01:07:27;96996.34;;;16.13;45.15
44079;BME280;29744;49.078;12.878;2022-10-30T01:12:27;96985.53;;;16.13;44.90
44079;BME280;29744;49.078;12.878;2022-10-30T01:17:44;96982.03;;;16.13;45.08
44079;BME280;29744;49.078;12.878;2022-10-30T01:33:39;96968.81;;;16.11;45.13
44079;BME280;29744;49.078;12.878;2022-10-30T01:39:00;96972.78;;;16.14;45.44
44079;BME280;29744;49.078;12.878;2022-10-30T01:44:08;96972.47;;;16.15;45.00
44079;BME280;29744;49.078;12.878;2022-10-30T01:49:54;96971.19;;;16.13;45.18
44079;BME280;29744;49.078;12.878;2022-10-30T01:55:06;96970.88;;;16.14;44.96
44079;BME280;29744;49.078;12.878;2022-10-30T02:00:12;96972.78;;;16.14;44.80
44079;BME280;29744;49.078;12.878;2022-10-30T02:05:29;96973.25;;;16.16;45.37
44079;BME280;29744;49.078;12.878;2022-10-30T02:10:34;96972.94;;;16.17;44.82
44079;BME280;29744;49.078;12.878;2022-10-30T02:15:35;96962.91;;;16.18;45.20
44079;BME280;29744;49.078;12.878;2022-10-30T02:20:36;96954.78;;;16.18;45.07
44079;BME280;29744;49.078;12.878;2022-10-30T02:25:37;96952.09;;;16.18;45.40
44079;BME280;29744;49.078;12.878;2022-10-30T02:30:38;96957.19;;;16.19;45.01
44079;BME280;29744;49.078;12.878;2022-10-30T02:35:39;96954.00;;;16.17;45.33
44079;BME280;29744;49.078;12.878;2022-10-30T02:40:39;96948.28;;;16.19;44.79
44079;BME280;29744;49.078;12.878;2022-10-30T02:45:40;96952.56;;;16.20;45.24
44079;BME280;29744;49.078;12.878;2022-10-30T02:50:40;96950.97;;;16.19;45.19
44079;BME280;29744;49.078;12.878;2022-10-30T02:55:40;96947.16;;;16.20;45.28
44079;BME280;29744;49.078;12.878;2022-10-30T03:00:40;96947.16;;;16.20;45.10
44079;BME280;29744;49.078;12.878;2022-10-30T03:05:41;96944.91;;;16.22;44.86
44079;BME280;29744;49.078;12.878;2022-10-30T03:10:41;96941.41;;;16.21;45.12
44079;BME280;29744;49.078;12.878;2022-10-30T03:15:41;96937.59;;;16.22;44.66
44079;BME280;29744;49.078;12.878;2022-10-30T03:20:42;96943.81;;;16.23;44.96
44079;BME280;29744;49.078;12.878;2022-10-30T03:25:42;96947.16;;;16.20;44.81
44079;BME280;29744;49.078;12.878;2022-10-30T03:30:42;96945.25;;;16.20;45.05
44079;BME280;29744;49.078;12.878;2022-10-30T03:35:45;96941.75;;;16.20;44.88
44079;BME280;29744;49.078;12.878;2022-10-30T03:40:46;96948.28;;;16.19;44.93
44079;BME280;29744;49.078;12.878;2022-10-30T03:45:51;96948.59;;;16.17;44.66
44079;BME280;29744;49.078;12.878;2022-10-30T03:50:54;96948.59;;;16.17;45.09
44079;BME280;29744;49.078;12.878;2022-10-30T03:56:00;96941.59;;;16.16;45.07
44079;BME280;29744;49.078;12.878;2022-10-30T04:01:02;96945.09;;;16.17;45.08
44079;BME280;29744;49.078;12.878;2022-10-30T04:06:03;96947.78;;;16.17;45.12
44079;BME280;29744;49.078;12.878;2022-10-30T04:11:04;96938.09;;;16.16;44.97
44079;BME280;29744;49.078;12.878;2022-10-30T04:16:05;96922.19;;;16.14;45.41
44079;BME280;29744;49.078;12.878;2022-10-30T04:21:05;96926.47;;;16.15;45.01
44079;BME280;29744;49.078;12.878;2022-10-30T04:26:06;96941.91;;;16.15;45.21
44079;BME280;29744;49.078;12.878;2022-10-30T04:31:06;96934.59;;;16.15;45.22
44079;BME280;29744;49.078;12.878;2022-10-30T04:36:07;96933.00;;;16.14;45.14
44079;BME280;29744;49.078;12.878;2022-10-30T04:41:07;96933.78;;;16.15;45.17
44079;BME280;29744;49.078;12.878;2022-10-30T04:46:08;96937.28;;;16.15;45.23
44079;BME280;29744;49.078;12.878;2022-10-30T04:51:08;96928.38;;;16.15;45.33
44079;BME280;29744;49.078;12.878;2022-10-30T04:56:10;96928.38;;;16.15;44.82
44079;BME280;29744;49.078;12.878;2022-10-30T05:01:10;96919.16;;;16.16;45.06
44079;BME280;29744;49.078;12.878;2022-10-30T05:06:20;96915.19;;;16.13;45.28
44079;BME280;29744;49.078;12.878;2022-10-30T05:11:21;96915.97;;;16.14;45.09
44079;BME280;29744;49.078;12.878;2022-10-30T05:16:21;96914.38;;;16.13;45.41
44079;BME280;29744;49.078;12.878;2022-10-30T05:21:21;96914.06;;;16.14;45.17
44079;BME280;29744;49.078;12.878;2022-10-30T05:26:22;96913.25;;;16.14;45.14
44079;BME280;29744;49.078;12.878;2022-10-30T05:31:22;96908.97;;;16.13;45.10
44079;BME280;29744;49.078;12.878;2022-10-30T05:36:22;96910.56;;;16.14;45.17
44079;BME280;29744;49.078;12.878;2022-10-30T05:41:23;96916.75;;;16.14;44.96
44079;BME280;29744;49.078;12.878;2022-10-30T05:46:23;96912.94;;;16.15;45.16
44079;BME280;29744;49.078;12.878;2022-10-30T05:51:23;96913.75;;;16.16;45.17
44079;BME280;29744;49.078;12.878;2022-10-30T05:56:24;96909.13;;;16.16;45.07
44079;BME280;29744;49.078;12.878;2022-10-30T06:01:24;96916.13;;;16.17;45.22
44079;BME280;29744;49.078;12.878;2022-10-30T06:06:24;96915.31;;;16.17;44.98
44079;BME280;29744;49.078;12.878;2022-10-30T06:11:25;96919.94;;;16.16;45.01
44079;BME280;29744;49.078;12.878;2022-10-30T06:16:25;96909.91;;;16.17;44.98
44079;BME280;29744;49.078;12.878;2022-10-30T06:21:25;96912.63;;;16.17;44.78
44079;BME280;29744;49.078;12.878;2022-10-30T06:26:25;96927.75;;;16.18;45.04
44079;BME280;29744;49.078;12.878;2022-10-30T06:31:26;96921.22;;;16.19;45.34
44079;BME280;29744;49.078;12.878;2022-10-30T06:36:26;96921.69;;;16.21;44.92
44079;BME280;29744;49.078;12.878;2022-10-30T06:41:26;96926.31;;;16.20;44.65
44079;BME280;29744;49.078;12.878;2022-10-30T06:46:27;96921.22;;;16.19;44.80
44079;BME280;29744;49.078;12.878;2022-10-30T06:51:27;96923.59;;;16.20;44.78
44079;BME280;29744;49.078;12.878;2022-10-30T06:56:27;96923.28;;;16.22;44.98
44079;BME280;29744;49.078;12.878;2022-10-30T07:01:28;96937.91;;;16.21;44.94
44079;BME280;29744;49.078;12.878;2022-10-30T07:06:28;96932.50;;;16.21;44.93
44079;BME280;29744;49.078;12.878;2022-10-30T07:11:28;96936.47;;;16.23;44.66
44079;BME280;29744;49.078;12.878;2022-10-30T07:16:29;96932.66;;;16.24;45.02
44079;BME280;29744;49.078;12.878;2022-10-30T07:21:29;96934.56;;;16.24;44.84
44079;BME280;29744;49.078;12.878;2022-10-30T07:26:29;96937.75;;;16.26;44.71
44079;BME280;29744;49.078;12.878;2022-10-30T07:31:30;96929.94;;;16.24;45.20
44079;BME280;29744;49.078;12.878;2022-10-30T07:36:30;96935.03;;;16.26;45.01
44079;BME280;29744;49.078;12.878;2022-10-30T07:41:30;96939.34;;;16.27;45.09
44079;BME280;29744;49.078;12.878;2022-10-30T07:46:31;96933.59;;;16.28;44.65
44079;BME280;29744;49.078;12.878;2022-10-30T07:51:31;96930.91;;;16.28;44.79
44079;BME280;29744;49.078;12.878;2022-10-30T07:56:31;96929.78;;;16.29;44.67
44079;BME280;29744;49.078;12.878;2022-10-30T08:01:32;96938.38;;;16.31;44.84
44079;BME280;29744;49.078;12.878;2022-10-30T08:06:32;96938.69;;;16.30;45.08
44079;BME280;29744;49.078;12.878;2022-10-30T08:11:32;96943.78;;;16.31;45.17
44079;BME280;29744;49.078;12.878;2022-10-30T08:16:32;96940.28;;;16.31;44.85
44079;BME280;29744;49.078;12.878;2022-10-30T08:21:33;96939.16;;;16.32;44.63
44079;BME280;29744;49.078;12.878;2022-10-30T08:26:33;96939.16;;;16.32;45.17
44079;BME280;29744;49.078;12.878;2022-10-30T08:31:34;96937.25;;;16.32;44.70
44079;BME280;29744;49.078;12.878;2022-10-30T08:36:34;96933.44;;;16.33;45.03
44079;BME280;29744;49.078;12.878;2022-10-30T08:41:35;96929.94;;;16.33;44.74
44079;BME280;29744;49.078;12.878;2022-10-30T08:46:35;96934.22;;;16.34;44.49
44079;BME280;29744;49.078;12.878;2022-10-30T08:51:35;96925.31;;;16.33;44.71
44079;BME280;29744;49.078;12.878;2022-10-30T08:56:36;96932.31;;;16.34;44.80
44079;BME280;29744;49.078;12.878;2022-10-30T09:01:36;96926.09;;;16.34;45.10
44079;BME280;29744;49.078;12.878;2022-10-30T09:06:36;96922.59;;;16.33;44.98
44079;BME280;29744;49.078;12.878;2022-10-30T09:11:36;96914.47;;;16.33;45.17
44079;BME280;29744;49.078;12.878;2022-10-30T09:16:37;96915.28;;;16.34;44.73
44079;BME280;29744;49.078;12.878;2022-10-30T09:21:37;96904.78;;;16.32;44.72
44079;BME280;29744;49.078;12.878;2022-10-30T09:26:37;96911.78;;;16.33;44.85
44079;BME280;29744;49.078;12.878;2022-10-30T09:31:38;96912.56;;;16.34;44.89
44079;BME280;29744;49.078;12.878;2022-10-30T09:36:38;96908.28;;;16.33;44.97
44079;BME280;29744;49.078;12.878;2022-10-30T09:47:18;96911.31;;;16.31;44.91
44079;BME280;29744;49.078;12.878;2022-10-30T09:52:27;96901.28;;;16.32;45.06
44079;BME280;29744;49.078;12.878;2022-10-30T10:03:02;96900.47;;;16.31;44.87
44079;BME280;29744;49.078;12.878;2022-10-30T10:08:09;96895.53;;;16.33;44.79
44079;BME280;29744;49.078;12.878;2022-10-30T10:13:47;96901.28;;;16.32;44.72
44079;BME280;29744;49.078;12.878;2022-10-30T10:19:04;96898.56;;;16.32;44.96
44079;BME280;29744;49.078;12.878;2022-10-30T10:24:14;96900.16;;;16.33;44.59
44079;BME280;29744;49.078;12.878;2022-10-30T10:29:31;96897.44;;;16.33;44.66
44079;BME280;29744;49.078;12.878;2022-10-30T10:45:33;96886.63;;;16.33;45.04
44079;BME280;29744;49.078;12.878;2022-10-30T10:50:46;96887.09;;;16.35;44.77
44079;BME280;29744;49.078;12.878;2022-10-30T10:55:51;96883.28;;;16.36;44.83
44079;BME280;29744;49.078;12.878;2022-10-30T11:00:55;96880.56;;;16.36;44.81
44079;BME280;29744;49.078;12.878;2022-10-30T11:06:20;96870.84;;;16.35;44.76
44079;BME280;29744;49.078;12.878;2022-10-30T11:11:21;96869.72;;;16.36;45.10
44079;BME280;29744;49.078;12.878;2022-10-30T11:16:28;96857.78;;;16.37;44.89
44079;BME280;29744;49.078;12.878;2022-10-30T11:21:38;96860.50;;;16.37;44.96
44079;BME280;29744;49.078;12.878;2022-10-30T11:26:41;96859.38;;;16.38;44.79
44079;BME280;29744;49.078;12.878;2022-10-30T11:31:42;96854.75;;;16.38;44.83
44079;BME280;29744;49.078;12.878;2022-10-30T11:36:53;96845.03;;;16.37;44.80
44079;BME280;29744;49.078;12.878;2022-10-30T11:42:12;96836.94;;;16.37;44.68
44079;BME280;29744;49.078;12.878;2022-10-30T11:47:16;96834.22;;;16.37;44.88
44079;BME280;29744;49.078;12.878;2022-10-30T11:52:20;96833.09;;;16.38;45.10
44079;BME280;29744;49.078;12.878;2022-10-30T11:57:42;96834.22;;;16.37;44.76
44079;BME280;29744;49.078;12.878;2022-10-30T12:02:46;96830.06;;;16.40;44.65
44079;BME280;29744;49.078;12.878;2022-10-30T12:07:47;96828.19;;;16.40;44.52
44079;BME280;29744;49.078;12.878;2022-10-30T12:12:49;96821.94;;;16.40;45.00
44079;BME280;29744;49.078;12.878;2022-10-30T12:17:51;96817.34;;;16.40;44.54
44079;BME280;29744;49.078;12.878;2022-10-30T12:22:53;96816.06;;;16.38;44.62
44079;BME280;29744;49.078;12.878;2022-10-30T12:27:58;96811.63;;;16.42;44.75
44079;BME280;29744;49.078;12.878;2022-10-30T12:33:15;96810.03;;;16.41;44.89
44079;BME280;29744;49.078;12.878;2022-10-30T12:38:28;96809.25;;;16.40;44.88
44079;BME280;29744;49.078;12.878;2022-10-30T12:43:34;96801.13;;;16.40;44.63
44079;BME280;29744;49.078;12.878;2022-10-30T12:48:40;96796.50;;;16.41;44.60
44079;BME280;29744;49.078;12.878;2022-10-30T12:54:03;96793.78;;;16.41;44.96
44079;BME280;29744;49.078;12.878;2022-10-30T13:04:32;96785.19;;;16.39;44.64
44079;BME280;29744;49.078;12.878;2022-10-30T13:09:43;96784.88;;;16.40;44.72
44079;BME280;29744;49.078;12.878;2022-10-30T13:14:56;96777.56;;;16.41;44.65
44079;BME280;29744;49.078;12.878;2022-10-30T13:19:58;96783.75;;;16.41;44.85
44079;BME280;29744;49.078;12.878;2022-10-30T13:30:11;96781.06;;;16.41;44.45
44079;BME280;29744;49.078;12.878;2022-10-30T13:35:29;96778.63;;;16.40;45.07
44079;BME280;29744;49.078;12.878;2022-10-30T13:40:45;96777.84;;;16.39;44.71
44079;BME280;29744;49.078;12.878;2022-10-30T13:56:33;96781.06;;;16.41;44.69
44079;BME280;29744;49.078;12.878;2022-10-30T14:02:02;96782.47;;;16.39;45.03
44079;BME280;29744;49.078;12.878;2022-10-30T14:12:45;96778.63;;;16.40;44.75
44079;BME280;29744;49.078;12.878;2022-10-30T14:23:20;96779.47;;;16.40;44.94
44079;BME280;29744;49.078;12.878;2022-10-30T14:28:21;96782.97;;;16.41;44.54
44079;BME280;29744;49.078;12.878;2022-10-30T14:33:51;96780.56;;;16.39;44.73
44079;BME280;29744;49.078;12.878;2022-10-30T14:39:25;96776.25;;;16.38;44.84
44079;BME280;29744;49.078;12.878;2022-10-30T14:54:57;96785.66;;;16.41;44.74
44079;BME280;29744;49.078;12.878;2022-10-30T15:06:16;96788.03;;;16.42;44.68
44079;BME280;29744;49.078;12.878;2022-10-30T15:11:12;96793.47;;;16.42;44.70
44079;BME280;29744;49.078;12.878;2022-10-30T15:16:18;96788.03;;;16.42;44.86
44079;BME280;29744;49.078;12.878;2022-10-30T15:21:21;96795.06;;;16.44;44.91
44079;BME280;29744;49.078;12.878;2022-10-30T15:26:33;96791.53;;;16.43;44.46
44079;BME280;29744;49.078;12.878;2022-10-30T15:31:34;96799.66;;;16.43;44.92
44079;BME280;29744;49.078;12.878;2022-10-30T15:36:40;96805.88;;;16.44;44.80
44079;BME280;29744;49.078;12.878;2022-10-30T15:41:49;96800.47;;;16.44;44.81
44079;BME280;29744;49.078;12.878;2022-10-30T15:46:53;96799.34;;;16.45;44.64
44079;BME280;29744;49.078;12.878;2022-10-30T15:51:53;96808.59;;;16.44;44.61
44079;BME280;29744;49.078;12.878;2022-10-30T15:56:58;96811.28;;;16.44;44.48
44079;BME280;29744;49.078;12.878;2022-10-30T16:01:59;96817.50;;;16.44;44.83
44079;BME280;29744;49.078;12.878;2022-10-30T16:07:00;96817.03;;;16.42;45.18
44079;BME280;29744;49.078;12.878;2022-10-30T16:12:03;96821.31;;;16.43;44.93
44079;BME280;29744;49.078;12.878;2022-10-30T16:17:04;96817.03;;;16.42;44.95
44079;BME280;29744;49.078;12.878;2022-10-30T16:22:04;96820.53;;;16.42;44.87
44079;BME280;29744;49.078;12.878;2022-10-30T16:27:15;96819.41;;;16.44;44.77
44079;BME280;29744;49.078;12.878;2022-10-30T16:32:19;96821.31;;;16.43;44.84
44079;BME280;29744;49.078;12.878;2022-10-30T16:37:23;96825.94;;;16.42;44.80
44079;BME280;29744;49.078;12.878;2022-10-30T16:42:26;96832.47;;;16.41;44.99
44079;BME280;29744;49.078;12.878;2022-10-30T16:47:27;96832.78;;;16.40;44.95
44079;BME280;29744;49.078;12.878;2022-10-30T16:52:33;96837.91;;;16.41;44.80
44079;BME280;29744;49.078;12.878;2022-10-30T16:57:40;96836.78;;;16.42;44.99
44079;BME280;29744;49.078;12.878;2022-10-30T17:02:43;96840.28;;;16.43;45.10
44079;BME280;29744;49.078;12.878;2022-10-30T17:07:57;96846.81;;;16.42;44.62
44079;BME280;29744;49.078;12.878;2022-10-30T17:13:30;96851.44;;;16.41;45.04
44079;BME280;29744;49.078;12.878;2022-10-30T17:18:31;96859.56;;;16.41;44.87
44079;BME280;29744;49.078;12.878;2022-10-30T17:23:33;96869.25;;;16.42;44.52
44079;BME280;29744;49.078;12.878;2022-10-30T17:28:35;96872.28;;;16.41;44.47
44079;BME280;29744;49.078;12.878;2022-10-30T17:33:36;96875.47;;;16.43;45.11
44079;BME280;29744;49.078;12.878;2022-10-30T17:38:36;96884.38;;;16.44;45.14
44079;BME280;29744;49.078;12.878;2022-10-30T17:43:51;96885.50;;;16.42;44.91
44079;BME280;29744;49.078;12.878;2022-10-30T17:48:52;96884.38;;;16.44;44.58
44079;BME280;29744;49.078;12.878;2022-10-30T17:53:52;96883.13;;;16.41;44.46
44079;BME280;29744;49.078;12.878;2022-10-30T17:58:53;96885.50;;;16.42;44.58
44079;BME280;29744;49.078;12.878;2022-10-30T18:03:54;96885.50;;;16.42;44.94
44079;BME280;29744;49.078;12.878;2022-10-30T18:08:55;96899.03;;;16.42;44.59
44079;BME280;29744;49.078;12.878;2022-10-30T18:13:56;96899.03;;;16.42;45.01
44079;BME280;29744;49.078;12.878;2022-10-30T18:18:56;96895.53;;;16.42;44.77
44079;BME280;29744;49.078;12.878;2022-10-30T18:23:57;96899.84;;;16.43;44.84
44079;BME280;29744;49.078;12.878;2022-10-30T18:28:58;96905.25;;;16.43;45.10
44079;BME280;29744;49.078;12.878;2022-10-30T18:33:58;96911.78;;;16.42;44.77
44079;BME280;29744;49.078;12.878;2022-10-30T18:38:58;96913.38;;;16.43;44.52
44079;BME280;29744;49.078;12.878;2022-10-30T18:43:58;96907.16;;;16.42;44.72
44079;BME280;29744;49.078;12.878;2022-10-30T18:48:59;96915.28;;;16.42;44.66
44079;BME280;29744;49.078;12.878;2022-10-30T18:53:59;96917.97;;;16.42;45.04
44079;BME280;29744;49.078;12.878;2022-10-30T18:58:59;96916.06;;;16.43;44.83
44079;BME280;29744;49.078;12.878;2022-10-30T19:04:00;96924.19;;;16.43;44.93
44079;BME280;29744;49.078;12.878;2022-10-30T19:09:01;96909.88;;;16.42;44.66
44079;BME280;29744;49.078;12.878;2022-10-30T19:14:01;96909.88;;;16.42;44.61
44079;BME280;29744;49.078;12.878;2022-10-30T19:19:01;96918.78;;;16.43;44.94
44079;BME280;29744;49.078;12.878;2022-10-30T19:24:08;96919.56;;;16.44;44.40
44079;BME280;29744;49.078;12.878;2022-10-30T19:29:11;96913.38;;;16.43;44.74
44079;BME280;29744;49.078;12.878;2022-10-30T19:34:11;96909.53;;;16.44;44.67
44079;BME280;29744;49.078;12.878;2022-10-30T19:39:13;96912.56;;;16.42;45.01
44079;BME280;29744;49.078;12.878;2022-10-30T19:44:15;96912.56;;;16.42;44.67
44079;BME280;29744;49.078;12.878;2022-10-30T19:49:17;96916.06;;;16.43;44.64
44079;BME280;29744;49.078;12.878;2022-10-30T19:54:18;96916.06;;;16.43;45.04
44079;BME280;29744;49.078;12.878;2022-10-30T19:59:19;96909.06;;;16.42;44.64
44079;BME280;29744;49.078;12.878;2022-10-30T20:04:19;96920.69;;;16.42;44.78
44079;BME280;29744;49.078;12.878;2022-10-30T20:09:20;96915.28;;;16.42;44.45
44079;BME280;29744;49.078;12.878;2022-10-30T20:14:21;96923.41;;;16.42;44.88
44079;BME280;29744;49.078;12.878;2022-10-30T20:19:29;96918.78;;;16.43;44.93
44079;BME280;29744;49.078;12.878;2022-10-30T20:24:29;96918.78;;;16.43;45.01
44079;BME280;29744;49.078;12.878;2022-10-30T20:29:30;96917.97;;;16.42;44.57
44079;BME280;29744;49.078;12.878;2022-10-30T20:34:30;96926.09;;;16.42;44.70
44079;BME280;29744;49.078;12.878;2022-10-30T20:39:30;96917.97;;;16.42;44.92
44079;BME280;29744;49.078;12.878;2022-10-30T20:44:31;96924.50;;;16.41;44.60
44079;BME280;29744;49.078;12.878;2022-10-30T20:49:31;96928.00;;;16.42;44.81
44079;BME280;29744;49.078;12.878;2022-10-30T20:54:31;96931.53;;;16.42;44.47
44079;BME280;29744;49.078;12.878;2022-10-30T20:59:31;96933.44;;;16.42;44.65
44079;BME280;29744;49.078;12.878;2022-10-30T21:04:32;96932.63;;;16.41;44.86
44079;BME280;29744;49.078;12.878;2022-10-30T21:09:32;96920.69;;;16.42;44.53
44079;BME280;29744;49.078;12.878;2022-10-30T21:14:33;96925.31;;;16.42;44.75
44079;BME280;29744;49.078;12.878;2022-10-30T21:19:33;96921.81;;;16.41;44.68
44079;BME280;29744;49.078;12.878;2022-10-30T21:24:33;96923.72;;;16.41;44.72
44079;BME280;29744;49.078;12.878;2022-10-30T21:29:34;96921.81;;;16.41;44.37
44079;BME280;29744;49.078;12.878;2022-10-30T21:34:34;96918.31;;;16.41;44.86
44079;BME280;29744;49.078;12.878;2022-10-30T21:39:34;96921.00;;;16.41;44.81
44079;BME280;29744;49.078;12.878;2022-10-30T21:44:35;96925.63;;;16.40;44.92
44079;BME280;29744;49.078;12.878;2022-10-30T21:49:35;96922.94;;;16.40;44.98
44079;BME280;29744;49.078;12.878;2022-10-30T21:54:35;96934.56;;;16.41;44.69
44079;BME280;29744;49.078;12.878;2022-10-30T21:59:36;96926.44;;;16.41;44.54
44079;BME280;29744;49.078;12.878;2022-10-30T22:04:36;96922.94;;;16.40;44.76
44079;BME280;29744;49.078;12.878;2022-10-30T22:09:36;96931.03;;;16.40;44.92
44079;BME280;29744;49.078;12.878;2022-10-30T22:14:36;96924.00;;;16.39;44.82
44079;BME280;29744;49.078;12.878;2022-10-30T22:19:37;96921.31;;;16.39;44.95
44079;BME280;29744;49.078;12.878;2022-10-30T22:24:37;96921.31;;;16.39;44.89
44079;BME280;29744;49.078;12.878;2022-10-30T22:29:37;96916.69;;;16.40;44.79
44079;BME280;29744;49.078;12.878;2022-10-30T22:34:37;96906.97;;;16.39;44.60
44079;BME280;29744;49.078;12.878;2022-10-30T22:39:38;96908.09;;;16.38;44.77
44079;BME280;29744;49.078;12.878;2022-10-30T22:44:38;96912.41;;;16.39;44.40
44079;BME280;29744;49.078;12.878;2022-10-30T22:49:38;96908.91;;;16.38;44.80
44079;BME280;29744;49.078;12.878;2022-10-30T22:54:38;96918.59;;;16.39;44.82
44079;BME280;29744;49.078;12.878;2022-10-30T22:59:39;96912.72;;;16.37;44.74
44079;BME280;29744;49.078;12.878;2022-10-30T23:04:39;96911.91;;;16.37;44.60
44079;BME280;29744;49.078;12.878;2022-10-30T23:09:39;96917.34;;;16.37;44.35
44079;BME280;29744;49.078;12.878;2022-10-30T23:14:40;96916.22;;;16.38;44.50
44079;BME280;29744;49.078;12.878;2022-10-30T23:19:40;96911.91;;;16.37;44.51
44079;BME280;29744;49.078;12.878;2022-10-30T23:24:40;96912.72;;;16.37;44.99
44079;BME280;29744;49.078;12.878;2022-10-30T23:29:40;96907.63;;;16.36;45.01
44079;BME280;29744;49.078;12.878;2022-10-30T23:34:41;96910.34;;;16.36;44.48
44079;BME280;29744;49.078;12.878;2022-10-30T23:39:41;96916.53;;;16.36;44.88
44079;BME280;29744;49.078;12.878;2022-10-30T23:44:41;96910.34;;;16.36;44.81
44079;BME280;29744;49.078;12.878;2022-10-30T23:49:41;96913.03;;;16.36;44.63
44079;BME280;29744;49.078;12.878;2022-10-30T23:54:42;96911.44;;;16.35;44.72
44079;BME280;29744;49.078;12.878;2022-10-30T23:59:42;96914.16;;;16.35;44.70
